Time;durP1;ratioP1;P1;durP2;ratioP2;P2;SDS_P1;SDS_P2;PMS_P1;PMS_P2;Temp;Humidity;BMP_temperature;BMP_pressure;BME280_temperature;BME280_humidity;BME280_pressure;Samples;Min_cycle;Max_cycle;Signal;HPM_P1;HPM_P2
2022/07/05 00:02:15;;;;;;;0.20;0.20;;;13.20;99.90;;;;;;5076327;28;20050;-75
2022/07/05 00:04:41;;;;;;;0.40;0.30;;;13.30;99.90;;;;;;5088050;28;20051;-75
2022/07/05 00:07:29;;;;;;;0.70;0.25;;;13.30;99.90;;;;;;5088432;28;21489;-75
2022/07/05 00:09:56;;;;;;;0.40;0.20;;;13.30;99.90;;;;;;5075284;28;20040;-75
2022/07/05 00:12:27;;;;;;;0.30;0.30;;;13.30;99.90;;;;;;5088232;28;20369;-75
2022/07/05 00:14:53;;;;;;;0.20;0.17;;;13.30;99.90;;;;;;5087907;28;20065;-75
2022/07/05 00:17:19;;;;;;;0.30;0.28;;;12.90;99.90;;;;;;5070893;28;20352;-75
2022/07/05 00:19:45;;;;;;;0.40;0.22;;;13.10;99.90;;;;;;5071871;28;20157;-76
2022/07/05 00:22:11;;;;;;;0.65;0.20;;;13.20;99.90;;;;;;5085754;28;20058;-76
2022/07/05 00:24:36;;;;;;;2.45;0.40;;;12.90;99.90;;;;;;5075186;28;20498;-75
2022/07/05 00:27:02;;;;;;;0.52;0.30;;;13.10;99.90;;;;;;5079614;28;20087;-75
2022/07/05 00:29:28;;;;;;;0.40;0.20;;;12.80;99.90;;;;;;5086939;28;20086;-76
2022/07/05 00:31:54;;;;;;;0.40;0.30;;;12.70;99.90;;;;;;5104860;28;20031;-75
2022/07/05 00:34:20;;;;;;;0.40;0.20;;;12.70;99.90;;;;;;5071086;28;20070;-75
2022/07/05 00:36:46;;;;;;;0.30;0.30;;;12.90;99.90;;;;;;5070898;28;20539;-75
2022/07/05 00:39:12;;;;;;;0.32;0.30;;;12.70;99.90;;;;;;5085890;28;20415;-75
2022/07/05 00:41:38;;;;;;;0.30;0.30;;;12.80;99.90;;;;;;5068699;28;20034;-75
2022/07/05 00:44:07;;;;;;;0.20;0.20;;;12.80;99.90;;;;;;5098017;28;20396;-75
2022/07/05 00:46:33;;;;;;;0.30;0.30;;;12.80;99.90;;;;;;5085525;28;20078;-75
2022/07/05 00:49:00;;;;;;;0.25;0.20;;;12.60;99.90;;;;;;5066371;28;20028;-75
2022/07/05 00:51:29;;;;;;;0.30;0.30;;;12.50;99.90;;;;;;5088869;28;20043;-75
2022/07/05 00:53:55;;;;;;;0.20;0.20;;;12.80;99.90;;;;;;5083044;28;20040;-75
2022/07/05 00:56:24;;;;;;;0.15;0.15;;;12.40;99.90;;;;;;5066261;28;20040;-76
2022/07/05 00:58:50;;;;;;;0.65;0.50;;;12.60;99.90;;;;;;5090447;28;20060;-75
2022/07/05 01:01:16;;;;;;;0.30;0.30;;;12.50;99.90;;;;;;5071847;28;20464;-75
2022/07/05 01:03:42;;;;;;;;;;;12.20;99.90;;;;;;5089294;28;20183;-75
2022/07/05 01:06:10;;;;;;;0.50;0.30;;;12.70;99.90;;;;;;5081345;28;19942;-75
2022/07/05 01:08:39;;;;;;;0.35;0.30;;;12.70;99.90;;;;;;5099733;28;20415;-75
2022/07/05 01:11:06;;;;;;;0.20;0.20;;;12.40;99.90;;;;;;5088747;28;20494;-75
2022/07/05 01:13:33;;;;;;;0.20;0.20;;;12.40;99.90;;;;;;5064744;28;20379;-75
2022/07/05 01:15:59;;;;;;;0.20;0.20;;;12.30;99.90;;;;;;5076098;28;20032;-76
2022/07/05 01:18:25;;;;;;;0.35;0.30;;;12.00;99.90;;;;;;5086816;28;20048;-75
2022/07/05 01:20:51;;;;;;;0.40;0.20;;;12.60;99.90;;;;;;5065334;28;20491;-76
2022/07/05 01:23:20;;;;;;;0.77;0.40;;;12.10;99.90;;;;;;5078771;28;20213;-75
2022/07/05 01:25:47;;;;;;;0.40;0.35;;;12.20;99.90;;;;;;5068563;28;20047;-75
2022/07/05 01:28:14;;;;;;;0.40;0.38;;;12.20;99.90;;;;;;5070713;28;20036;-75
2022/07/05 01:30:41;;;;;;;0.75;0.40;;;12.30;99.90;;;;;;5087110;28;20394;-75
2022/07/05 01:33:08;;;;;;;0.28;0.28;;;12.30;99.90;;;;;;5068534;28;20124;-75
2022/07/05 01:35:34;;;;;;;0.20;0.20;;;11.80;99.90;;;;;;5086010;28;20506;-76
2022/07/05 01:38:00;;;;;;;0.30;0.30;;;12.10;99.90;;;;;;5087332;28;20039;-75
2022/07/05 01:40:26;;;;;;;0.43;0.28;;;12.10;99.90;;;;;;5070612;28;20043;-75
2022/07/05 01:42:52;;;;;;;0.20;0.20;;;11.80;99.90;;;;;;5086125;28;20502;-75
2022/07/05 01:48:09;;;;;;;0.20;0.20;;;12.10;99.90;;;;;;5084090;28;20560;-75
2022/07/05 01:50:39;;;;;;;0.20;0.20;;;11.90;99.90;;;;;;5088450;28;20040;-75
2022/07/05 01:53:11;;;;;;;0.32;0.30;;;11.90;99.90;;;;;;5085886;28;20519;-75
2022/07/05 01:55:36;;;;;;;0.20;0.20;;;12.20;99.90;;;;;;5096263;28;20044;-75
2022/07/05 01:58:02;;;;;;;0.40;0.40;;;11.90;99.90;;;;;;5065504;28;20093;-75
2022/07/05 02:00:28;;;;;;;1.10;0.30;;;12.10;99.90;;;;;;5085412;28;20032;-75
2022/07/05 02:02:56;;;;;;;0.40;0.30;;;11.80;99.90;;;;;;5090971;28;20560;-75
2022/07/05 02:05:21;;;;;;;0.30;0.30;;;11.70;99.90;;;;;;5089120;28;20757;-75
2022/07/05 02:07:50;;;;;;;0.82;0.40;;;11.70;99.90;;;;;;5072322;28;20075;-75
2022/07/05 02:10:16;;;;;;;0.40;0.40;;;11.70;99.90;;;;;;5088759;28;20052;-75
2022/07/05 02:12:42;;;;;;;0.30;0.30;;;11.50;99.90;;;;;;5094526;28;20039;-75
2022/07/05 02:15:08;;;;;;;0.30;0.30;;;11.60;99.90;;;;;;5089702;28;20036;-75
2022/07/05 02:17:34;;;;;;;0.30;0.30;;;11.50;99.90;;;;;;5089665;28;20054;-75
2022/07/05 02:19:59;;;;;;;0.40;0.30;;;11.50;99.90;;;;;;5070326;28;20463;-75
2022/07/05 02:22:25;;;;;;;0.40;0.40;;;11.70;99.90;;;;;;5073975;28;20043;-75
2022/07/05 02:24:52;;;;;;;0.32;0.28;;;11.80;99.90;;;;;;5088403;28;20047;-75
2022/07/05 02:27:18;;;;;;;0.68;0.47;;;11.40;99.90;;;;;;5091687;28;20528;-75
2022/07/05 02:29:43;;;;;;;0.38;0.38;;;12.00;99.90;;;;;;5089177;28;20047;-75
2022/07/05 02:32:09;;;;;;;0.40;0.40;;;11.50;99.90;;;;;;5089245;28;20091;-75
2022/07/05 02:34:35;;;;;;;0.30;0.30;;;11.60;99.90;;;;;;5088939;28;20039;-75
2022/07/05 02:37:00;;;;;;;0.30;0.30;;;11.90;99.90;;;;;;5088339;28;20094;-75
2022/07/05 02:39:26;;;;;;;0.40;0.30;;;11.30;99.90;;;;;;5085814;28;20047;-75
2022/07/05 02:41:52;;;;;;;0.30;0.30;;;11.80;99.90;;;;;;5084205;28;20040;-75
2022/07/05 02:44:17;;;;;;;0.40;0.40;;;11.90;99.90;;;;;;5070949;28;20036;-75
2022/07/05 02:46:43;;;;;;;0.47;0.40;;;11.60;99.90;;;;;;5088601;28;20356;-75
2022/07/05 02:49:09;;;;;;;0.25;0.25;;;11.30;99.90;;;;;;5087417;28;20494;-75
2022/07/05 02:51:34;;;;;;;0.30;0.30;;;11.80;99.90;;;;;;5086179;28;20052;-75
2022/07/05 02:54:00;;;;;;;0.40;0.40;;;11.20;99.90;;;;;;5093379;28;20035;-75
2022/07/05 02:56:26;;;;;;;0.30;0.30;;;11.60;99.90;;;;;;5066028;28;20399;-75
2022/07/05 02:58:51;;;;;;;0.40;0.40;;;11.40;99.90;;;;;;5075547;28;20056;-75
2022/07/05 03:01:17;;;;;;;0.30;0.30;;;11.30;99.90;;;;;;5071117;28;20059;-76
2022/07/05 03:03:43;;;;;;;0.60;0.38;;;11.30;99.90;;;;;;5071642;28;20066;-75
2022/07/05 03:06:08;;;;;;;0.40;0.40;;;11.60;99.90;;;;;;5099730;27;20337;-75
2022/07/05 03:08:34;;;;;;;0.30;0.30;;;11.70;99.90;;;;;;5092534;28;20036;-75
2022/07/05 03:11:00;;;;;;;0.28;0.22;;;11.60;99.90;;;;;;5084957;28;20384;-75
2022/07/05 03:13:25;;;;;;;0.40;0.40;;;11.50;99.90;;;;;;5095413;28;20468;-75
2022/07/05 03:15:51;;;;;;;0.50;0.40;;;11.60;99.90;;;;;;5073861;28;20032;-76
2022/07/05 03:18:17;;;;;;;0.57;0.40;;;11.20;99.90;;;;;;5103640;28;20165;-75
2022/07/05 03:20:43;;;;;;;0.30;0.30;;;11.00;99.90;;;;;;5090761;28;20031;-75
2022/07/05 03:23:08;;;;;;;0.40;0.30;;;11.50;99.90;;;;;;5103129;28;20043;-75
2022/07/05 03:25:34;;;;;;;0.20;0.20;;;10.90;99.90;;;;;;5112151;28;20036;-76
2022/07/05 03:27:59;;;;;;;0.45;0.35;;;11.60;99.90;;;;;;5072528;28;20081;-75
2022/07/05 03:30:25;;;;;;;0.20;0.20;;;11.50;99.90;;;;;;5100719;28;20388;-75
2022/07/05 03:32:51;;;;;;;0.30;0.30;;;11.00;99.90;;;;;;5094413;28;20078;-75
2022/07/05 03:35:16;;;;;;;0.60;0.40;;;11.30;99.90;;;;;;5085039;28;20036;-75
2022/07/05 03:37:42;;;;;;;0.47;0.25;;;11.50;99.90;;;;;;5082166;28;20062;-76
2022/07/05 03:40:08;;;;;;;0.15;0.10;;;11.60;99.90;;;;;;5091031;28;20051;-76
2022/07/05 03:42:35;;;;;;;0.28;0.28;;;11.00;99.90;;;;;;5110624;28;20406;-75
2022/07/05 03:45:02;;;;;;;0.20;0.20;;;11.60;99.90;;;;;;5093176;28;20460;-75
2022/07/05 03:47:27;;;;;;;0.17;0.17;;;11.30;99.90;;;;;;5111976;28;20135;-75
2022/07/05 03:49:54;;;;;;;0.25;0.25;;;11.70;99.90;;;;;;5095625;28;20044;-75
2022/07/05 03:52:20;;;;;;;0.47;0.30;;;11.20;99.90;;;;;;5102311;28;20042;-75
2022/07/05 03:54:45;;;;;;;0.20;0.20;;;11.60;99.90;;;;;;5099785;28;20440;-76
2022/07/05 03:57:12;;;;;;;1.17;0.20;;;11.80;99.90;;;;;;5095776;28;20031;-76
2022/07/05 03:59:38;;;;;;;0.40;0.30;;;11.20;99.90;;;;;;5083248;28;20514;-76
2022/07/05 04:02:04;;;;;;;0.20;0.20;;;11.20;99.90;;;;;;5067134;28;20100;-75
2022/07/05 04:04:30;;;;;;;0.28;0.28;;;11.40;99.90;;;;;;5087294;28;20485;-76
2022/07/05 04:06:56;;;;;;;0.32;0.32;;;11.30;99.90;;;;;;5075565;28;20462;-76
2022/07/05 04:09:21;;;;;;;0.20;0.20;;;11.30;99.90;;;;;;5087781;28;20047;-76
2022/07/05 04:11:47;;;;;;;0.30;0.30;;;12.00;99.90;;;;;;5091164;28;20040;-76
2022/07/05 04:14:13;;;;;;;0.20;0.20;;;11.60;99.90;;;;;;5091298;28;20165;-76
2022/07/05 04:16:38;;;;;;;0.20;0.20;;;11.50;99.90;;;;;;5090458;28;20054;-76
2022/07/05 04:19:04;;;;;;;0.30;0.30;;;11.90;99.90;;;;;;5111138;27;20446;-76
2022/07/05 04:21:30;;;;;;;0.20;0.20;;;11.50;99.90;;;;;;5109841;28;20036;-76
2022/07/05 04:23:56;;;;;;;0.50;0.25;;;11.60;99.90;;;;;;5072756;28;20077;-76
2022/07/05 04:26:21;;;;;;;0.30;0.30;;;11.60;99.90;;;;;;5091722;28;20490;-76
2022/07/05 04:28:47;;;;;;;0.28;0.28;;;12.30;99.90;;;;;;5090329;28;20039;-76
2022/07/05 04:31:13;;;;;;;0.20;0.20;;;12.30;99.90;;;;;;5089873;28;20428;-76
2022/07/05 04:33:39;;;;;;;0.20;0.20;;;12.10;99.90;;;;;;5077126;28;20515;-76
2022/07/05 04:36:05;;;;;;;0.20;0.20;;;12.20;99.90;;;;;;5092255;28;20481;-77
2022/07/05 04:38:31;;;;;;;0.10;0.10;;;11.90;99.90;;;;;;5104085;28;20142;-77
2022/07/05 04:40:57;;;;;;;0.22;0.22;;;12.10;99.90;;;;;;5064782;28;20043;-77
2022/07/05 04:43:22;;;;;;;0.20;0.20;;;12.40;99.90;;;;;;5090142;28;20097;-77
2022/07/05 04:45:49;;;;;;;0.10;0.10;;;12.70;99.90;;;;;;5075825;28;20040;-77
2022/07/05 04:48:14;;;;;;;;;;;12.80;99.90;;;;;;5079853;28;20028;-77
2022/07/05 04:50:40;;;;;;;0.20;0.20;;;12.90;99.90;;;;;;5090554;28;20294;-76
2022/07/05 04:53:05;;;;;;;0.45;0.20;;;13.00;99.90;;;;;;5097556;28;20036;-76
2022/07/05 04:55:31;;;;;;;0.10;0.10;;;13.10;99.90;;;;;;5091458;28;20043;-76
2022/07/05 04:57:57;;;;;;;0.10;0.10;;;13.30;99.90;;;;;;5089866;28;20426;-78
2022/07/05 05:00:22;;;;;;;0.22;0.22;;;12.80;99.90;;;;;;5101585;28;20135;-76
2022/07/05 05:02:48;;;;;;;0.10;0.10;;;12.90;99.90;;;;;;5072620;28;20062;-77
2022/07/05 05:05:14;;;;;;;0.10;0.10;;;12.90;99.90;;;;;;5092590;28;20047;-79
2022/07/05 05:07:44;;;;;;;0.10;0.10;;;13.40;99.90;;;;;;5094327;28;20062;-77
2022/07/05 05:10:10;;;;;;;0.10;0.10;;;13.40;99.90;;;;;;5084067;28;20055;-77
2022/07/05 05:12:36;;;;;;;0.10;0.10;;;13.00;99.90;;;;;;5080454;28;20048;-78
2022/07/05 05:15:02;;;;;;;0.52;0.20;;;13.40;99.90;;;;;;5109903;28;20150;-77
2022/07/05 05:17:39;;;;;;;0.00;0.00;;;13.60;99.90;;;;;;5088470;28;20067;-77
2022/07/05 05:20:06;;;;;;;;;;;13.20;99.90;;;;;;5094468;28;20047;-78
2022/07/05 05:22:31;;;;;;;0.10;0.10;;;13.30;99.90;;;;;;5090973;28;19915;-78
2022/07/05 05:24:57;;;;;;;0.30;0.30;;;13.30;99.90;;;;;;5089338;28;20347;-76
2022/07/05 05:27:23;;;;;;;0.20;0.20;;;13.50;99.90;;;;;;5086340;28;20077;-77
2022/07/05 05:29:48;;;;;;;0.17;0.17;;;13.70;99.90;;;;;;5089971;28;20036;-77
2022/07/05 05:32:14;;;;;;;0.20;0.20;;;14.00;99.90;;;;;;5068139;28;20059;-76
2022/07/05 05:34:40;;;;;;;0.57;0.20;;;13.70;99.90;;;;;;5074448;28;20177;-76
2022/07/05 05:37:05;;;;;;;1.05;0.55;;;14.00;99.90;;;;;;5092650;28;20035;-77
2022/07/05 05:39:31;;;;;;;0.57;0.50;;;14.30;99.90;;;;;;5096570;28;20079;-77
2022/07/05 05:41:57;;;;;;;0.82;0.40;;;13.90;99.90;;;;;;5103766;28;20046;-77
2022/07/05 05:44:22;;;;;;;0.50;0.43;;;14.10;99.90;;;;;;5085930;28;20108;-77
2022/07/05 05:46:48;;;;;;;0.50;0.50;;;13.90;99.90;;;;;;5088575;28;20040;-77
2022/07/05 05:49:13;;;;;;;1.40;0.80;;;14.20;99.90;;;;;;5090596;28;20043;-77
2022/07/05 05:51:39;;;;;;;0.70;0.60;;;14.70;99.90;;;;;;5090861;28;20059;-77
2022/07/05 05:54:05;;;;;;;1.10;0.60;;;14.60;99.90;;;;;;5091829;28;20462;-77
2022/07/05 05:56:30;;;;;;;1.45;1.00;;;14.40;99.90;;;;;;5084997;28;20559;-77
2022/07/05 05:58:56;;;;;;;1.92;1.00;;;14.70;99.90;;;;;;5091253;28;20073;-77
2022/07/05 06:01:22;;;;;;;1.05;0.60;;;14.90;99.90;;;;;;5070361;28;20057;-77
2022/07/05 06:03:47;;;;;;;0.98;0.50;;;15.20;99.90;;;;;;5075615;28;20058;-79
2022/07/05 06:06:13;;;;;;;1.15;0.70;;;15.10;99.90;;;;;;5085397;28;20055;-77
2022/07/05 06:08:39;;;;;;;0.43;0.32;;;15.00;99.90;;;;;;5086303;28;20087;-76
2022/07/05 06:11:05;;;;;;;1.48;0.40;;;15.30;99.90;;;;;;5079814;28;20047;-77
2022/07/05 06:13:31;;;;;;;0.88;0.65;;;15.40;99.90;;;;;;5086610;28;20415;-76
2022/07/05 06:15:56;;;;;;;1.25;0.80;;;15.80;99.90;;;;;;5088750;28;20510;-76
2022/07/05 06:18:22;;;;;;;1.70;0.70;;;15.90;99.90;;;;;;5088316;28;20040;-77
2022/07/05 06:20:48;;;;;;;0.68;0.40;;;15.60;99.90;;;;;;5081718;28;20158;-76
2022/07/05 06:23:13;;;;;;;1.33;0.52;;;16.20;99.90;;;;;;5092792;28;20054;-76
2022/07/05 06:25:39;;;;;;;2.33;0.80;;;16.20;99.90;;;;;;5047042;28;20071;-76
2022/07/05 06:28:08;;;;;;;2.47;0.80;;;16.60;99.90;;;;;;5069090;28;20040;-76
2022/07/05 06:30:36;;;;;;;2.67;0.93;;;16.30;99.90;;;;;;5078061;28;20040;-75
2022/07/05 06:33:02;;;;;;;1.70;0.90;;;16.40;99.90;;;;;;5088213;28;20040;-76
2022/07/05 06:35:28;;;;;;;1.13;0.70;;;16.40;99.90;;;;;;5084288;28;20040;-76
2022/07/05 06:37:58;;;;;;;0.80;0.60;;;16.80;99.90;;;;;;5086452;28;20388;-77
2022/07/05 06:40:26;;;;;;;1.02;0.47;;;16.60;99.90;;;;;;5088232;28;20070;-76
2022/07/05 06:42:55;;;;;;;1.45;0.40;;;16.90;99.90;;;;;;5087318;28;20040;-75
2022/07/05 06:45:22;;;;;;;2.58;0.70;;;17.30;99.90;;;;;;5089178;28;20047;-75
2022/07/05 06:47:58;;;;;;;1.35;0.60;;;17.30;99.90;;;;;;5084887;28;20044;-75
2022/07/05 06:50:28;;;;;;;;;;;17.10;99.90;;;;;;5087428;28;20074;-74
2022/07/05 06:52:54;;;;;;;1.95;0.65;;;17.40;99.90;;;;;;5068789;28;19965;-75
2022/07/05 06:55:21;;;;;;;1.75;0.60;;;17.30;99.90;;;;;;5071920;28;20048;-74
2022/07/05 06:57:47;;;;;;;2.40;0.60;;;17.50;99.90;;;;;;5087696;28;20131;-74
2022/07/05 07:00:13;;;;;;;3.08;0.73;;;17.40;99.90;;;;;;5088544;28;20120;-75
2022/07/05 07:02:39;;;;;;;2.33;0.63;;;17.40;99.90;;;;;;5091705;28;20048;-75
2022/07/05 07:05:06;;;;;;;3.30;0.80;;;17.20;99.90;;;;;;5090128;28;20036;-74
2022/07/05 07:10:17;;;;;;;1.63;0.60;;;17.50;99.90;;;;;;5062348;28;20040;-75
2022/07/05 07:12:43;;;;;;;0.50;0.30;;;17.50;99.90;;;;;;5063626;28;20045;-75
2022/07/05 07:15:09;;;;;;;0.98;0.40;;;17.60;99.90;;;;;;5067327;28;20071;-68
2022/07/05 07:17:34;;;;;;;2.35;0.60;;;17.80;99.90;;;;;;5041205;28;20148;-69
2022/07/05 07:20:00;;;;;;;2.13;0.68;;;17.90;99.90;;;;;;5063456;28;20139;-69
2022/07/05 07:22:26;;;;;;;5.13;0.98;;;18.00;99.90;;;;;;5061640;28;20097;-68
2022/07/05 07:24:52;;;;;;;3.65;0.70;;;18.10;99.90;;;;;;5066987;28;20045;-68
2022/07/05 07:27:18;;;;;;;2.03;0.68;;;18.30;99.90;;;;;;5066930;28;20076;-69
2022/07/05 07:29:43;;;;;;;;;;;18.20;99.90;;;;;;5065247;28;20105;-69
2022/07/05 07:32:09;;;;;;;1.98;0.50;;;18.20;99.90;;;;;;5067041;28;19916;-69
2022/07/05 07:34:36;;;;;;;;;;;18.10;99.90;;;;;;5061635;28;20032;-68
2022/07/05 07:37:03;;;;;;;2.17;0.50;;;18.10;99.90;;;;;;5058991;28;19925;-68
2022/07/05 07:39:31;;;;;;;3.25;0.52;;;18.10;99.90;;;;;;5064398;28;20387;-69
2022/07/05 07:41:57;;;;;;;2.15;0.50;;;18.10;99.90;;;;;;5065916;28;20054;-68
2022/07/05 07:44:23;;;;;;;;;;;18.20;99.90;;;;;;5068521;28;20044;-68
2022/07/05 07:46:49;;;;;;;1.33;0.40;;;18.20;99.90;;;;;;5063721;28;19923;-68
2022/07/05 07:49:14;;;;;;;1.50;0.57;;;18.50;99.90;;;;;;5061877;28;20045;-68
2022/07/05 07:51:40;;;;;;;1.48;0.55;;;18.90;99.90;;;;;;5065448;28;20091;-68
2022/07/05 07:54:06;;;;;;;;;;;18.90;99.80;;;;;;5061114;28;20037;-68
2022/07/05 07:56:31;;;;;;;2.22;0.70;;;18.90;99.40;;;;;;5060706;28;20315;-68
2022/07/05 07:58:57;;;;;;;;;;;18.60;97.90;;;;;;5084427;28;20112;-69
2022/07/05 08:01:23;;;;;;;3.70;0.70;;;18.50;99.80;;;;;;5063224;28;19920;-68
2022/07/05 08:03:49;;;;;;;;;;;18.30;99.40;;;;;;5058985;28;20033;-69
2022/07/05 08:06:15;;;;;;;3.35;0.70;;;18.20;99.80;;;;;;5064066;28;20384;-69
2022/07/05 08:08:43;;;;;;;1.08;0.43;;;18.00;99.90;;;;;;5083017;28;20123;-69
2022/07/05 08:11:09;;;;;;;1.45;0.50;;;18.00;99.90;;;;;;5080667;28;20028;-68
2022/07/05 08:13:35;;;;;;;1.15;0.40;;;18.00;99.90;;;;;;5067628;28;20035;-69
2022/07/05 08:16:02;;;;;;;2.35;0.60;;;18.20;99.90;;;;;;5093468;28;20035;-69
2022/07/05 08:21:31;;;;;;;2.55;0.60;;;18.40;99.90;;;;;;5074530;28;20210;-68
2022/07/05 08:23:57;;;;;;;3.20;0.52;;;18.60;99.40;;;;;;5059605;28;20044;-69
2022/07/05 08:26:23;;;;;;;1.63;0.50;;;18.60;99.50;;;;;;5085422;28;20047;-68
2022/07/05 08:28:48;;;;;;;;;;;18.60;99.00;;;;;;5086625;28;20035;-69
2022/07/05 08:31:14;;;;;;;2.85;0.60;;;18.60;97.50;;;;;;5088271;28;19962;-68
2022/07/05 08:33:40;;;;;;;;;;;18.50;97.90;;;;;;5083324;28;20062;-69
2022/07/05 08:36:25;;;;;;;4.15;0.60;;;18.60;97.90;;;;;;5087155;28;19916;-69
2022/07/05 08:38:51;;;;;;;2.85;0.70;;;18.50;98.20;;;;;;5077312;28;20373;-69
2022/07/05 08:41:17;;;;;;;;;;;18.50;97.60;;;;;;5080316;28;20048;-69
2022/07/05 08:43:45;;;;;;;2.03;0.63;;;18.60;98.20;;;;;;5074441;28;20301;-68
2022/07/05 08:46:12;;;;;;;1.40;0.50;;;18.70;97.30;;;;;;5084304;28;20115;-68
2022/07/05 08:48:41;;;;;;;2.20;0.50;;;19.10;96.90;;;;;;5079843;28;20140;-69
2022/07/05 08:51:16;;;;;;;1.40;0.40;;;19.40;97.10;;;;;;5105799;28;20663;-68
2022/07/05 08:53:43;;;;;;;1.85;0.47;;;19.40;95.40;;;;;;5105213;28;20046;-69
2022/07/05 08:56:11;;;;;;;2.28;0.68;;;19.30;95.30;;;;;;5088112;28;20444;-69
2022/07/05 08:58:37;;;;;;;1.15;0.43;;;19.00;95.90;;;;;;5054173;28;20039;-69
2022/07/05 09:01:04;;;;;;;0.52;0.30;;;19.00;96.30;;;;;;5089065;28;20036;-69
2022/07/05 09:03:44;;;;;;;2.97;0.88;;;19.40;97.00;;;;;;5094067;28;20495;-69
2022/07/05 09:06:18;;;;;;;1.67;0.40;;;19.30;96.20;;;;;;5091991;28;20052;-69
2022/07/05 09:08:44;;;;;;;1.30;0.40;;;19.60;96.60;;;;;;5109010;28;20079;-68
2022/07/05 09:11:16;;;;;;;1.65;0.70;;;20.00;96.50;;;;;;5109482;28;20040;-69
2022/07/05 09:13:44;;;;;;;1.55;0.52;;;20.40;95.90;;;;;;5092386;28;20050;-69
2022/07/05 09:16:11;;;;;;;2.55;0.52;;;20.40;94.10;;;;;;5098077;28;20058;-69
2022/07/05 09:18:45;;;;;;;4.03;0.77;;;20.50;94.80;;;;;;5080027;28;20072;-68
2022/07/05 09:21:23;;;;;;;1.98;0.50;;;20.30;94.10;;;;;;5079094;28;20031;-69
2022/07/05 09:23:57;;;;;;;2.72;0.75;;;20.40;94.50;;;;;;5107952;28;20073;-69
2022/07/05 09:26:41;;;;;;;1.90;0.70;;;20.30;94.00;;;;;;5109286;28;20092;-69
2022/07/05 09:29:12;;;;;;;3.92;0.95;;;20.00;94.50;;;;;;5093928;28;20054;-69
2022/07/05 09:31:40;;;;;;;2.30;0.90;;;19.80;95.60;;;;;;5074710;28;20351;-69
2022/07/05 09:34:11;;;;;;;2.15;0.68;;;19.70;96.00;;;;;;5092300;28;20039;-69
2022/07/05 09:36:56;;;;;;;1.70;0.40;;;19.50;95.70;;;;;;5092342;28;20073;-69
2022/07/05 09:39:35;;;;;;;1.55;0.47;;;19.40;96.10;;;;;;5091988;28;22183;-69
2022/07/05 09:42:23;;;;;;;0.95;0.55;;;19.30;96.10;;;;;;5092216;28;20055;-69
2022/07/05 09:44:56;;;;;;;2.28;0.60;;;19.20;96.50;;;;;;5093015;28;20394;-69
2022/07/05 09:47:23;;;;;;;1.48;0.50;;;19.00;97.50;;;;;;5090441;28;20070;-69
2022/07/05 09:49:51;;;;;;;1.55;0.50;;;19.10;96.10;;;;;;5090687;28;20085;-69
2022/07/05 09:52:39;;;;;;;1.92;0.60;;;19.70;96.40;;;;;;5109222;28;20135;-69
2022/07/05 09:55:06;;;;;;;2.38;0.68;;;19.90;95.50;;;;;;5083924;28;20048;-69
2022/07/05 09:57:33;;;;;;;1.95;0.65;;;20.40;95.80;;;;;;5071682;28;20124;-69
2022/07/05 10:00:01;;;;;;;0.82;0.40;;;20.50;94.60;;;;;;5082449;28;20119;-69
2022/07/05 10:02:58;;;;;;;2.63;0.47;;;20.80;94.00;;;;;;5091249;28;20425;-69
2022/07/05 10:05:25;;;;;;;2.40;0.60;;;20.80;94.50;;;;;;5062247;28;20135;-69
2022/07/05 10:07:56;;;;;;;1.58;0.65;;;21.10;95.20;;;;;;5108559;28;20059;-69
2022/07/05 10:10:27;;;;;;;3.72;0.60;;;20.90;93.20;;;;;;5112451;28;20052;-70
2022/07/05 10:13:01;;;;;;;1.17;0.50;;;20.80;93.00;;;;;;5069207;28;20364;-70
2022/07/05 10:15:30;;;;;;;1.60;0.43;;;21.00;93.00;;;;;;5096609;28;20044;-75
2022/07/05 10:18:05;;;;;;;2.10;0.55;;;21.00;92.60;;;;;;5091123;28;20039;-74
2022/07/05 10:20:39;;;;;;;1.85;0.60;;;20.80;93.40;;;;;;5094943;28;20152;-74
2022/07/05 10:23:06;;;;;;;1.92;0.80;;;20.50;94.20;;;;;;5085945;28;20142;-73
2022/07/05 10:25:34;;;;;;;2.53;0.77;;;20.00;94.90;;;;;;5088088;28;20082;-74
2022/07/05 10:28:01;;;;;;;2.15;0.47;;;19.70;95.20;;;;;;5087066;28;20440;-74
2022/07/05 10:30:27;;;;;;;2.95;0.60;;;19.60;94.30;;;;;;5074512;28;20071;-74
2022/07/05 10:32:54;;;;;;;1.20;0.50;;;19.60;94.60;;;;;;5091106;28;20032;-75
2022/07/05 10:35:21;;;;;;;1.30;0.47;;;19.70;94.90;;;;;;5067720;28;20442;-76
2022/07/05 10:37:48;;;;;;;2.60;0.73;;;19.60;94.90;;;;;;5090676;28;20451;-75
2022/07/05 10:40:15;;;;;;;2.33;0.52;;;19.60;94.80;;;;;;5092132;28;20051;-75
2022/07/05 10:42:52;;;;;;;2.28;0.60;;;19.70;95.40;;;;;;5082381;28;20047;-75
2022/07/05 10:45:29;;;;;;;1.50;0.50;;;19.90;94.50;;;;;;5096767;28;20040;-76
2022/07/05 10:48:16;;;;;;;1.35;0.55;;;20.40;94.50;;;;;;5108196;28;20504;-75
2022/07/05 10:50:53;;;;;;;1.25;0.40;;;20.90;93.40;;;;;;5094351;28;20044;-75
2022/07/05 10:53:21;;;;;;;3.35;0.70;;;21.50;93.40;;;;;;5087926;28;20465;-75
2022/07/05 10:55:58;;;;;;;1.38;0.50;;;21.70;93.50;;;;;;5084904;28;20096;-75
2022/07/05 10:58:25;;;;;;;1.80;0.60;;;21.40;93.60;;;;;;5089745;28;20054;-75
2022/07/05 11:01:15;;;;;;;2.42;0.50;;;21.40;93.20;;;;;;5091602;28;20093;-75
2022/07/05 11:03:42;;;;;;;1.88;0.50;;;21.80;92.00;;;;;;5094418;28;20054;-75
2022/07/05 11:06:08;;;;;;;1.67;0.50;;;21.70;92.10;;;;;;5090226;28;20491;-75
2022/07/05 11:08:59;;;;;;;1.70;0.63;;;21.30;92.40;;;;;;5092419;28;20044;-75
2022/07/05 11:11:33;;;;;;;3.33;0.88;;;21.00;93.00;;;;;;5094456;28;20124;-74
2022/07/05 11:14:04;;;;;;;2.95;0.63;;;20.80;93.50;;;;;;5091194;28;20054;-75
2022/07/05 11:16:33;;;;;;;2.58;0.50;;;20.50;94.00;;;;;;5103953;28;20463;-75
2022/07/05 11:19:05;;;;;;;5.28;0.70;;;20.40;94.50;;;;;;5094528;28;20540;-75
2022/07/05 11:21:32;;;;;;;4.05;0.70;;;20.30;94.10;;;;;;5092157;28;20085;-75
2022/07/05 11:24:24;;;;;;;2.03;0.63;;;20.30;93.50;;;;;;5086970;28;20122;-75
2022/07/05 11:26:52;;;;;;;1.92;0.40;;;20.90;93.20;;;;;;5103229;28;20043;-75
2022/07/05 11:29:53;;;;;;;1.30;0.55;;;21.50;93.60;;;;;;5091114;28;20046;-75
2022/07/05 11:32:28;;;;;;;2.03;0.50;;;22.00;92.10;;;;;;5110138;28;20040;-74
2022/07/05 11:34:57;;;;;;;2.75;0.60;;;22.00;91.90;;;;;;5090746;28;20035;-75
2022/07/05 11:37:32;;;;;;;1.17;0.50;;;22.20;92.30;;;;;;5084621;28;20036;-74
2022/07/05 11:40:07;;;;;;;0.98;0.43;;;21.90;92.90;;;;;;5066052;28;20050;-74
2022/07/05 11:42:39;;;;;;;2.72;0.60;;;22.10;92.90;;;;;;5085597;28;20052;-75
2022/07/05 11:45:09;;;;;;;1.33;0.50;;;21.40;92.80;;;;;;5093548;28;20134;-75
2022/07/05 11:47:36;;;;;;;2.33;0.50;;;21.10;92.70;;;;;;5086009;28;20114;-75
2022/07/05 11:50:02;;;;;;;2.15;0.60;;;20.70;92.90;;;;;;5093666;28;21114;-75
2022/07/05 11:52:33;;;;;;;0.75;0.40;;;20.20;92.30;;;;;;5082743;28;20044;-75
2022/07/05 11:55:01;;;;;;;1.55;0.52;;;19.70;93.30;;;;;;5081636;28;20142;-75
2022/07/05 11:57:27;;;;;;;2.13;0.40;;;19.50;93.20;;;;;;5081262;28;20047;-75
2022/07/05 11:59:53;;;;;;;1.17;0.47;;;19.20;93.00;;;;;;5069647;28;20120;-75
2022/07/05 12:02:18;;;;;;;;;;;19.40;94.40;;;;;;5084498;28;20156;-75
2022/07/05 12:04:55;;;;;;;1.70;0.57;;;19.60;97.10;;;;;;5104393;27;19920;-74
2022/07/05 12:07:34;;;;;;;3.67;1.00;;;19.50;98.20;;;;;;5107621;27;20047;-75
2022/07/05 12:12:50;;;;;;;4.05;1.00;;;18.60;99.90;;;;;;5079948;28;20376;-75
2022/07/05 12:15:18;;;;;;;2.05;0.70;;;18.50;99.90;;;;;;5082317;28;20071;-75
2022/07/05 12:17:55;;;;;;;2.60;0.70;;;18.40;99.90;;;;;;5079567;28;20028;-75
2022/07/05 12:20:22;;;;;;;4.47;0.90;;;18.40;99.90;;;;;;5085042;28;20052;-75
2022/07/05 12:22:49;;;;;;;3.95;0.90;;;18.30;99.90;;;;;;5087254;28;20046;-75
2022/07/05 12:25:17;;;;;;;1.58;0.50;;;18.50;99.90;;;;;;5076325;28;20056;-75
2022/07/05 12:27:44;;;;;;;2.67;0.63;;;18.80;99.90;;;;;;5066929;28;20048;-75
2022/07/05 12:30:11;;;;;;;2.58;0.75;;;18.80;99.90;;;;;;5080881;28;20120;-74
2022/07/05 12:33:03;;;;;;;2.85;0.70;;;18.80;99.70;;;;;;5077582;28;20043;-74
2022/07/05 12:35:36;;;;;;;1.85;0.63;;;18.70;99.90;;;;;;5069678;28;20044;-73
2022/07/05 12:38:03;;;;;;;1.40;0.60;;;18.60;99.90;;;;;;5089106;28;20044;-73
2022/07/05 12:40:29;;;;;;;2.38;0.70;;;18.60;99.90;;;;;;5067251;28;20496;-72
2022/07/05 12:43:06;;;;;;;;;;;18.70;99.90;;;;;;5080495;28;20063;-69
2022/07/05 12:45:32;;;;;;;2.38;0.60;;;18.60;99.90;;;;;;5086773;28;19920;-70
2022/07/05 12:48:00;;;;;;;2.92;0.63;;;18.50;99.90;;;;;;5072797;28;20383;-70
2022/07/05 12:50:31;;;;;;;2.78;0.90;;;18.40;99.90;;;;;;5058964;28;20340;-69
2022/07/05 12:58:52;;;;;;;1.92;0.65;;;18.10;99.90;;;;;;5085681;28;20051;-70
2022/07/05 13:01:29;;;;;;;2.08;0.70;;;17.90;99.30;;;;;;5084887;28;20036;-70
2022/07/05 13:04:15;;;;;;;1.50;0.63;;;17.90;98.90;;;;;;5095220;28;20056;-70
2022/07/05 13:06:57;;;;;;;3.35;0.80;;;17.90;99.40;;;;;;5087832;28;20118;-70
2022/07/05 13:09:32;;;;;;;2.90;0.88;;;17.90;99.90;;;;;;5084479;28;20048;-70
2022/07/05 13:12:21;;;;;;;4.40;0.80;;;17.90;99.90;;;;;;5068542;28;20044;-70
2022/07/05 13:14:49;;;;;;;2.63;0.75;;;17.90;99.50;;;;;;5084261;28;20047;-70